Time;durP1;ratioP1;P1;durP2;ratioP2;P2;SDS_P1;SDS_P2;PMS_P1;PMS_P2;Temp;Humidity;BMP_temperature;BMP_pressure;BME280_temperature;BME280_humidity;BME280_pressure;Samples;Min_cycle;Max_cycle;Signal;HPM_P1;HPM_P2
2022/09/27 00:01:14;;;;;;;0.90;0.75;;;;;;;8.83;100.00;95583.25;5064663;28;20052;-65
2022/09/27 00:03:41;;;;;;;1.48;0.50;;;;;;;8.81;100.00;95580.03;5065427;28;20045;-65
2022/09/27 00:06:12;;;;;;;2.75;0.68;;;;;;;8.83;100.00;95584.06;5047123;28;20041;-65
2022/09/27 00:08:39;;;;;;;1.20;0.50;;;;;;;8.79;100.00;95574.94;5065809;28;20091;-65
2022/09/27 00:11:12;;;;;;;1.08;0.60;;;;;;;8.76;100.00;95577.38;5066581;28;20037;-65
2022/09/27 00:13:39;;;;;;;1.80;0.52;;;;;;;8.73;100.00;95577.97;5069111;28;20063;-65
2022/09/27 00:16:05;;;;;;;0.85;0.70;;;;;;;8.73;100.00;95581.44;5068286;28;20119;-65
2022/09/27 00:18:32;;;;;;;1.13;0.60;;;;;;;8.70;100.00;95571.25;5068752;28;20091;-65
2022/09/27 00:21:08;;;;;;;0.82;0.40;;;;;;;8.83;100.00;95575.97;5068235;28;20083;-65
2022/09/27 00:23:35;;;;;;;0.40;0.40;;;;;;;8.83;100.00;95575.97;5068163;28;20041;-65
2022/09/27 00:26:02;;;;;;;0.70;0.47;;;;;;;8.84;100.00;95577.56;5068387;28;20111;-65
2022/09/27 00:28:29;;;;;;;1.42;0.40;;;;;;;8.84;100.00;95579.44;5069257;28;20135;-65
2022/09/27 00:30:56;;;;;;;1.63;0.65;;;;;;;8.88;100.00;95569.69;5067059;28;20078;-65
2022/09/27 00:33:23;;;;;;;0.40;0.30;;;;;;;8.94;100.00;95571.28;5067280;28;20079;-65
2022/09/27 00:35:51;;;;;;;0.85;0.38;;;;;;;8.82;100.00;95565.44;5067767;28;20044;-65
2022/09/27 00:38:17;;;;;;;1.50;0.47;;;;;;;8.83;100.00;95569.75;5068050;28;20135;-65
2022/09/27 00:40:45;;;;;;;1.23;0.70;;;;;;;8.82;100.00;95565.44;5066561;28;20078;-65
2022/09/27 00:43:21;;;;;;;1.77;0.70;;;;;;;8.77;100.00;95563.59;5067036;28;20086;-65
2022/09/27 00:46:02;;;;;;;0.50;0.30;;;;;;;8.81;100.00;95567.34;5066371;28;20033;-65
2022/09/27 00:48:35;;;;;;;0.43;0.32;;;;;;;8.73;100.00;95570.66;5048430;28;20404;-65
2022/09/27 00:51:04;;;;;;;1.60;0.52;;;;;;;8.77;100.00;95565.50;5060054;28;20085;-65
2022/09/27 00:53:36;;;;;;;1.65;0.70;;;;;;;8.69;100.00;95565.03;5062798;28;20045;-65
2022/09/27 00:56:11;;;;;;;1.90;0.50;;;;;;;8.77;100.00;95563.59;5066576;28;20060;-65
2022/09/27 00:58:44;;;;;;;1.75;0.63;;;;;;;8.85;100.00;95562.97;5064201;28;20045;-65
2022/09/27 01:01:12;;;;;;;1.33;0.32;;;;;;;8.76;100.00;95561.19;5066693;28;20123;-65
2022/09/27 01:03:50;;;;;;;3.03;0.50;;;;;;;8.77;100.00;95566.28;5068204;28;20037;-65
2022/09/27 01:06:19;;;;;;;1.15;0.40;;;;;;;8.73;100.00;95564.47;5068101;28;20056;-65
2022/09/27 01:08:46;;;;;;;0.80;0.50;;;;;;;8.78;100.00;95562.53;5068159;28;20102;-65
2022/09/27 01:11:44;;;;;;;0.70;0.45;;;;;;;8.76;100.00;95555.78;5070293;28;20115;-65
2022/09/27 01:14:20;;;;;;;1.95;0.40;;;;;;;8.76;100.00;95562.00;5034005;28;20131;-65
2022/09/27 01:16:58;;;;;;;0.80;0.40;;;;;;;8.84;100.00;95565.97;5063104;28;20076;-65
2022/09/27 01:19:34;;;;;;;1.77;0.40;;;;;;;8.81;100.00;95561.94;5066220;28;20129;-65
2022/09/27 01:22:24;;;;;;;;;;;;;;;8.85;100.00;95554.09;5065151;28;20102;-64
2022/09/27 01:25:08;;;;;;;;;;;;;;;8.70;100.00;95553.13;5061417;28;19927;-65
2022/09/27 01:27:35;;;;;;;;;;;;;;;8.87;100.00;95553.78;5067196;28;19921;-65
2022/09/27 01:30:20;;;;;;;;;;;;;;;8.80;100.00;95557.63;5058242;28;19920;-65
2022/09/27 01:32:50;;;;;;;;;;;;;;;8.92;100.00;95559.16;5060535;28;19924;-65
2022/09/27 01:35:28;;;;;;;;;;;;;;;8.83;100.00;95561.66;5066990;28;20018;-65
2022/09/27 01:37:55;;;;;;;;;;;;;;;8.95;100.00;95558.56;5073303;28;19962;-65
2022/09/27 01:40:36;;;;;;;;;;;;;;;8.93;100.00;95563.44;5071545;28;19920;-65
2022/09/27 01:43:28;;;;;;;;;;;;;;;8.96;100.00;95563.69;5081051;28;20618;-64
2022/09/27 01:46:14;;;;;;;;;;;;;;;8.96;100.00;95565.59;5057207;28;20363;-64
2022/09/27 01:49:14;;;;;;;;;;;;;;;8.85;100.00;95564.88;5066322;28;19927;-64
2022/09/27 01:51:44;;;;;;;;;;;;;;;8.97;100.00;95559.09;5066269;28;19947;-64
2022/09/27 01:54:13;;;;;;;;;;;;;;;8.99;100.00;95556.91;5067537;28;19946;-64
2022/09/27 01:57:01;;;;;;;;;;;;;;;9.09;100.00;95564.09;5053832;28;19927;-64
2022/09/27 01:59:44;;;;;;;;;;;;;;;9.17;100.00;95568.84;5066716;28;19920;-64
2022/09/27 02:02:52;;;;;;;;;;;;;;;8.92;100.00;95572.66;5067110;28;20074;-64
2022/09/27 02:05:45;;;;;;;;;;;;;;;8.94;100.00;95582.06;5067722;28;20457;-65
2022/09/27 02:08:52;;;;;;;;;;;;;;;8.97;100.00;95589.59;5065371;28;19927;-65
2022/09/27 02:11:39;;;;;;;;;;;;;;;8.77;100.00;95605.97;5066150;28;19924;-64
2022/09/27 02:14:14;;;;;;;;;;;;;;;8.54;100.00;95606.44;5063490;28;19926;-65
2022/09/27 02:16:58;;;;;;;2.85;0.63;;;;;;;8.43;100.00;95602.16;5065042;28;19994;-65
2022/09/27 02:19:32;;;;;;;0.50;0.35;;;;;;;8.37;100.00;95604.09;5064941;28;20051;-65
2022/09/27 02:22:35;;;;;;;3.40;0.50;;;;;;;8.30;100.00;95604.41;5064705;28;20500;-64
2022/09/27 02:25:31;;;;;;;2.15;0.50;;;;;;;8.25;100.00;95604.47;5064555;28;20045;-65
2022/09/27 02:28:14;;;;;;;0.52;0.40;;;;;;;8.19;100.00;95597.50;5065239;28;20666;-64
2022/09/27 02:30:41;;;;;;;2.38;0.70;;;;;;;8.16;100.00;95601.56;5098678;28;20055;-65
2022/09/27 02:33:55;;;;;;;2.33;0.50;;;;;;;8.17;100.00;95597.78;5051177;28;20307;-65
2022/09/27 02:36:22;;;;;;;1.65;0.70;;;;;;;8.10;100.00;95602.69;5061627;28;20094;-65
2022/09/27 02:38:48;;;;;;;2.60;0.80;;;;;;;8.16;100.00;95595.38;5052466;28;20454;-65
2022/09/27 02:41:20;;;;;;;2.30;0.70;;;;;;;8.04;100.00;95606.50;5065061;28;20048;-64
2022/09/27 02:43:51;;;;;;;3.22;0.80;;;;;;;8.04;100.00;95598.41;5074618;28;20040;-64
2022/09/27 02:46:41;;;;;;;1.65;0.60;;;;;;;7.92;100.00;95607.63;5064211;28;20064;-65
2022/09/27 02:49:40;;;;;;;2.40;0.77;;;;;;;7.82;100.00;95607.72;5064519;28;20519;-65
2022/09/27 02:52:34;;;;;;;4.13;1.10;;;;;;;7.82;100.00;95610.41;5064278;28;20480;-65
2022/09/27 02:55:22;;;;;;;2.20;1.00;;;;;;;7.84;100.00;95608.22;5065681;28;20669;-65
2022/09/27 02:58:37;;;;;;;3.08;1.00;;;;;;;7.72;100.00;95615.81;5064704;28;20468;-65
2022/09/27 03:01:43;;;;;;;4.22;1.08;;;;;;;7.69;100.00;95622.56;5064398;28;20135;-64
2022/09/27 03:04:46;;;;;;;4.30;1.08;;;;;;;7.77;100.00;95619.31;5097751;28;20141;-64
2022/09/27 03:07:14;;;;;;;4.68;1.23;;;;;;;7.84;100.00;95626.25;5064966;28;20070;-64
2022/09/27 03:09:47;;;;;;;4.10;1.17;;;;;;;7.87;100.00;95625.72;5064480;28;20044;-65
2022/09/27 03:12:21;;;;;;;4.40;1.83;;;;;;;7.79;100.00;95621.72;5072612;28;20129;-65
2022/09/27 03:14:48;;;;;;;5.80;1.30;;;;;;;7.79;100.00;95627.13;5065970;28;20131;-64
2022/09/27 03:17:35;;;;;;;3.70;1.10;;;;;;;7.78;100.00;95630.91;5065511;28;20419;-65
2022/09/27 03:20:20;;;;;;;4.50;1.25;;;;;;;7.87;100.00;95637.31;5065436;28;20681;-65
2022/09/27 03:23:09;;;;;;;4.95;1.50;;;;;;;7.88;100.00;95652.38;5059593;28;20131;-65
2022/09/27 03:25:36;;;;;;;4.47;1.63;;;;;;;7.97;100.00;95641.03;5065652;28;20064;-64
2022/09/27 03:28:03;;;;;;;6.07;1.55;;;;;;;7.96;100.00;95648.31;5064785;28;20427;-65
2022/09/27 03:30:30;;;;;;;4.35;1.60;;;;;;;7.90;100.00;95639.47;5064403;28;20050;-65
2022/09/27 03:32:57;;;;;;;3.58;1.63;;;;;;;7.92;100.00;95649.94;5064167;28;20558;-64
2022/09/27 03:35:37;;;;;;;4.80;1.83;;;;;;;7.99;100.00;95649.66;5063520;28;20075;-65
2022/09/27 03:38:05;;;;;;;5.20;1.55;;;;;;;8.07;100.00;95640.97;5064152;28;20059;-65
2022/09/27 03:40:32;;;;;;;7.63;2.33;;;;;;;8.00;100.00;95648.56;5065161;28;20477;-65
2022/09/27 03:43:00;;;;;;;5.13;2.00;;;;;;;8.05;100.00;95649.34;5073873;28;20040;-65
2022/09/27 03:45:27;;;;;;;4.90;1.80;;;;;;;8.07;100.00;95647.16;5067011;28;20135;-66
2022/09/27 03:47:55;;;;;;;6.55;1.80;;;;;;;8.10;100.00;95645.81;5067716;28;20032;-65
2022/09/27 03:50:22;;;;;;;5.88;2.20;;;;;;;8.06;100.00;95652.84;5067686;28;20052;-65
2022/09/27 03:52:49;;;;;;;8.93;2.10;;;;;;;8.07;100.00;95654.44;5069360;28;20044;-66
2022/09/27 03:55:15;;;;;;;7.22;2.50;;;;;;;8.08;100.00;95658.78;5068941;28;20192;-66
2022/09/27 03:57:46;;;;;;;5.35;1.73;;;;;;;8.06;100.00;95659.03;5065803;28;20044;-65
2022/09/27 04:00:15;;;;;;;5.80;2.17;;;;;;;7.99;100.00;95652.34;5067718;28;20041;-66
2022/09/27 04:02:41;;;;;;;5.55;2.15;;;;;;;7.94;100.00;95661.25;5069028;28;20045;-66
2022/09/27 04:05:31;;;;;;;6.30;1.83;;;;;;;8.01;100.00;95658.25;5062765;28;20049;-65
2022/09/27 04:08:12;;;;;;;6.53;1.85;;;;;;;8.03;100.00;95654.19;5067680;28;20044;-66
2022/09/27 04:10:41;;;;;;;9.32;1.90;;;;;;;8.05;100.00;95662.84;5067595;28;20066;-65
2022/09/27 04:13:08;;;;;;;6.55;1.67;;;;;;;7.97;100.00;95658.03;5074097;28;20132;-65
2022/09/27 04:15:45;;;;;;;5.13;1.88;;;;;;;8.00;100.00;95662.03;5065586;28;20044;-65
2022/09/27 04:18:36;;;;;;;8.32;1.77;;;;;;;8.03;100.00;95658.78;5068985;28;20071;-65
2022/09/27 04:21:05;;;;;;;5.68;1.38;;;;;;;8.05;100.00;95662.84;5068933;28;20056;-65
2022/09/27 04:23:35;;;;;;;5.43;1.83;;;;;;;8.00;100.00;95670.13;5065272;28;20049;-65
2022/09/27 04:26:02;;;;;;;4.77;1.60;;;;;;;8.07;100.00;95665.22;5066953;28;20059;-65
2022/09/27 04:28:50;;;;;;;7.70;1.75;;;;;;;8.08;100.00;95666.84;5062534;28;20056;-65
2022/09/27 04:31:20;;;;;;;6.10;1.48;;;;;;;8.09;100.00;95667.66;5066006;28;20658;-65
2022/09/27 04:34:06;;;;;;;;;;;;;;;8.05;100.00;95668.22;5101745;28;20087;-66
2022/09/27 04:36:34;;;;;;;3.88;1.38;;;;;;;8.06;100.00;95669.00;5066606;28;20307;-66
2022/09/27 04:39:13;;;;;;;7.18;1.45;;;;;;;8.03;100.00;95678.47;5067356;28;20044;-65
2022/09/27 04:41:43;;;;;;;5.25;1.52;;;;;;;7.97;100.00;95682.28;5071172;28;20495;-65
2022/09/27 04:44:10;;;;;;;7.35;1.48;;;;;;;7.90;100.00;95682.56;5071229;28;20044;-65
2022/09/27 04:46:39;;;;;;;5.32;1.90;;;;;;;7.90;100.00;95687.16;5066632;28;20043;-66
2022/09/27 04:49:06;;;;;;;6.82;1.85;;;;;;;7.92;100.00;95685.78;5066344;28;20053;-65
2022/09/27 04:51:34;;;;;;;6.10;1.42;;;;;;;7.94;100.00;95693.59;5057780;28;20060;-66
2022/09/27 04:54:02;;;;;;;5.15;1.15;;;;;;;7.95;100.00;95692.50;5067765;28;20115;-65
2022/09/27 04:56:31;;;;;;;4.18;1.00;;;;;;;7.87;100.00;95685.81;5065366;28;20132;-65
2022/09/27 04:59:00;;;;;;;6.07;1.30;;;;;;;7.79;100.00;95697.97;5066569;28;20048;-67
2022/09/27 05:01:26;;;;;;;5.90;1.98;;;;;;;7.75;100.00;95694.22;5066207;28;20044;-65
2022/09/27 05:04:08;;;;;;;2.60;1.05;;;;;;;7.80;100.00;95702.28;5067550;28;20503;-65
2022/09/27 05:06:37;;;;;;;4.03;0.85;;;;;;;7.73;100.00;95703.63;5065591;28;20040;-65
2022/09/27 05:09:14;;;;;;;;;;;;;;;7.79;100.00;95714.16;5066720;28;19931;-66
2022/09/27 05:11:48;;;;;;;;;;;;;;;7.78;100.00;95714.41;5094966;28;19935;-65
2022/09/27 05:14:15;;;;;;;4.20;1.50;;;;;;;7.71;100.00;95725.50;5065792;28;19928;-65
2022/09/27 05:17:00;;;;;;;5.22;1.25;;;;;;;7.58;100.00;95726.03;5071266;28;20059;-66
2022/09/27 05:19:33;;;;;;;3.30;1.40;;;;;;;7.65;100.00;95735.47;5071478;28;20526;-65
2022/09/27 05:22:19;;;;;;;3.85;1.40;;;;;;;7.73;100.00;95741.34;5065413;28;20105;-66
2022/09/27 05:24:46;;;;;;;;;;;;;;;7.74;100.00;95743.78;5067932;28;20026;-65
2022/09/27 05:27:17;;;;;;;;;;;;;;;7.66;100.00;95739.78;5072080;28;19924;-65
2022/09/27 05:29:44;;;;;;;;;;;;;;;7.63;100.00;95747.59;5064359;28;19932;-65
2022/09/27 05:32:16;;;;;;;;;;;;;;;7.62;100.00;95744.09;5061584;28;20312;-65
2022/09/27 05:34:44;;;;;;;2.72;0.95;;;;;;;7.52;100.00;95754.91;5064491;28;19921;-65
2022/09/27 05:37:11;;;;;;;2.97;1.10;;;;;;;7.54;100.00;95764.31;5063138;28;20036;-65
2022/09/27 05:39:39;;;;;;;4.50;1.40;;;;;;;7.52;100.00;95758.38;5064015;28;20392;-66
2022/09/27 05:42:09;;;;;;;4.60;1.42;;;;;;;7.53;100.00;95761.88;5062864;28;20110;-66
2022/09/27 05:44:37;;;;;;;5.90;1.38;;;;;;;7.57;100.00;95768.34;5063134;28;20048;-66
2022/09/27 05:47:04;;;;;;;3.47;1.50;;;;;;;7.59;100.00;95763.47;5063814;28;20567;-66
2022/09/27 05:49:32;;;;;;;4.88;1.08;;;;;;;7.60;100.00;95767.00;5082122;28;20047;-66
2022/09/27 05:52:00;;;;;;;4.63;1.00;;;;;;;7.58;100.00;95766.44;5062705;28;20040;-66
2022/09/27 05:54:28;;;;;;;4.80;1.40;;;;;;;7.59;100.00;95774.25;5076547;28;20157;-66
2022/09/27 05:56:57;;;;;;;3.83;1.10;;;;;;;7.52;100.00;95776.44;5057465;28;20064;-66
2022/09/27 05:59:31;;;;;;;3.15;1.52;;;;;;;7.50;100.00;95776.72;5072465;28;20270;-66
2022/09/27 06:02:17;;;;;;;2.80;0.80;;;;;;;7.54;100.00;95775.09;5063560;28;20106;-66
2022/09/27 06:05:12;;;;;;;2.47;1.10;;;;;;;7.46;100.00;95793.66;5064301;28;20049;-66
2022/09/27 06:07:40;;;;;;;3.30;1.15;;;;;;;7.44;100.00;95793.16;5063083;28;20136;-66
2022/09/27 06:10:13;;;;;;;3.13;1.40;;;;;;;7.36;100.00;95797.16;5082767;28;20048;-66
2022/09/27 06:12:40;;;;;;;1.75;1.00;;;;;;;7.37;100.00;95793.41;5062349;28;20430;-65
2022/09/27 06:15:18;;;;;;;3.10;1.17;;;;;;;7.32;100.00;95802.31;5060948;28;20479;-66
2022/09/27 06:17:45;;;;;;;1.48;1.00;;;;;;;7.37;100.00;95801.50;5058570;28;20039;-66
2022/09/27 06:20:15;;;;;;;3.67;1.17;;;;;;;7.53;100.00;95804.97;5062723;28;20070;-66
2022/09/27 06:22:42;;;;;;;2.47;0.90;;;;;;;7.53;100.00;95816.53;5063107;28;20053;-66
2022/09/27 06:25:09;;;;;;;1.40;0.90;;;;;;;7.53;100.00;95813.84;5062760;28;20643;-65
2022/09/27 06:27:47;;;;;;;2.53;1.17;;;;;;;7.55;100.00;95810.88;5062752;28;20059;-66
2022/09/27 06:30:21;;;;;;;2.03;0.80;;;;;;;7.44;100.00;95820.06;5062675;28;20047;-66
2022/09/27 06:32:59;;;;;;;2.63;0.70;;;;;;;7.45;100.00;95813.59;5062852;28;20075;-66
2022/09/27 06:35:48;;;;;;;1.83;0.40;;;;;;;7.36;100.00;95816.84;5065616;28;20053;-66
2022/09/27 06:38:17;;;;;;;1.50;0.50;;;;;;;7.28;100.00;95822.75;5064370;28;20037;-66
2022/09/27 06:40:50;;;;;;;2.55;0.40;;;;;;;7.28;100.00;95837.03;5065146;28;20052;-66
2022/09/27 06:43:26;;;;;;;1.02;0.47;;;;;;;7.20;100.00;95828.69;5083447;28;20112;-66
2022/09/27 06:46:07;;;;;;;0.82;0.40;;;;;;;7.14;100.00;95831.38;5069209;28;20136;-66
2022/09/27 06:48:49;;;;;;;0.55;0.40;;;;;;;7.24;100.00;95835.97;5065184;28;20040;-66
2022/09/27 06:51:17;;;;;;;0.65;0.40;;;;;;;7.24;100.00;95835.97;5059836;28;20041;-65
2022/09/27 06:53:44;;;;;;;1.38;0.43;;;;;;;7.30;100.00;95834.09;5056570;28;20045;-65
2022/09/27 06:56:11;;;;;;;1.15;0.60;;;;;;;7.27;100.00;95837.31;5061633;28;20045;-66
2022/09/27 07:01:41;;;;;;;2.55;0.70;;;;;;;7.29;100.00;95846.72;5061239;28;20070;-63
2022/09/27 07:04:26;;;;;;;0.60;0.40;;;;;;;7.32;100.00;95848.06;5061156;28;20137;-65
2022/09/27 07:07:28;;;;;;;0.93;0.40;;;;;;;7.37;100.00;95856.16;5020651;28;20045;-65
2022/09/27 07:09:55;;;;;;;0.90;0.40;;;;;;;7.39;100.00;95845.94;5053519;28;20060;-62
2022/09/27 07:12:25;;;;;;;0.75;0.40;;;;;;;7.46;100.00;95853.75;5060046;28;20601;-65
2022/09/27 07:14:52;;;;;;;1.50;0.60;;;;;;;7.40;100.00;95865.56;5059459;28;20315;-61
2022/09/27 07:17:19;;;;;;;2.47;0.63;;;;;;;7.32;100.00;95866.09;5063661;28;20448;-62
2022/09/27 07:19:48;;;;;;;2.20;0.50;;;;;;;7.43;100.00;95873.13;5054178;28;20090;-62
2022/09/27 07:22:14;;;;;;;2.17;0.52;;;;;;;7.42;100.00;95877.69;5059754;28;20448;-62
2022/09/27 07:24:44;;;;;;;1.30;0.40;;;;;;;7.48;100.00;95880.41;5061964;28;20475;-62
2022/09/27 07:27:13;;;;;;;3.33;0.70;;;;;;;7.51;100.00;95882.53;5061462;28;20128;-62
2022/09/27 07:29:40;;;;;;;1.77;0.80;;;;;;;7.55;100.00;95886.31;5062048;28;20109;-67
2022/09/27 07:32:06;;;;;;;2.00;1.02;;;;;;;7.59;100.00;95878.53;5065969;28;20083;-62
2022/09/27 07:34:33;;;;;;;1.23;0.70;;;;;;;7.63;100.00;95888.47;5090987;28;20040;-62
2022/09/27 07:37:04;;;;;;;1.38;0.90;;;;;;;7.75;100.00;95885.53;5061796;28;20057;-67
2022/09/27 07:39:34;;;;;;;1.58;1.20;;;;;;;7.73;100.00;95886.84;5064601;28;20111;-63
2022/09/27 07:42:01;;;;;;;2.80;1.10;;;;;;;7.85;100.00;95886.59;5072230;28;20049;-62
2022/09/27 07:44:27;;;;;;;1.80;1.05;;;;;;;7.90;100.00;95897.34;5061122;28;20045;-62
2022/09/27 07:47:24;;;;;;;3.20;1.17;;;;;;;8.16;99.57;95900.84;5025103;28;20049;-62
2022/09/27 07:50:14;;;;;;;6.50;1.58;;;;;;;8.12;100.00;95909.72;5063000;28;20053;-62
2022/09/27 07:52:50;;;;;;;3.67;1.27;;;;;;;8.17;100.00;95901.63;5062621;28;20117;-62
2022/09/27 07:55:43;;;;;;;3.25;1.20;;;;;;;8.02;98.21;95905.97;5063352;28;20049;-61
2022/09/27 07:58:12;;;;;;;1.80;0.80;;;;;;;7.93;98.82;95907.59;5061879;28;20058;-62
2022/09/27 08:00:39;;;;;;;3.30;1.20;;;;;;;7.94;99.81;95904.63;5061094;28;20056;-62
2022/09/27 08:03:15;;;;;;;3.17;1.00;;;;;;;7.92;100.00;95920.25;5061405;28;20056;-61
2022/09/27 08:05:44;;;;;;;2.58;0.93;;;;;;;7.94;99.99;95918.13;5060334;28;20143;-61
2022/09/27 08:08:10;;;;;;;1.50;0.98;;;;;;;7.97;100.00;95922.16;5062452;28;20085;-61
2022/09/27 08:10:38;;;;;;;2.22;0.85;;;;;;;8.12;99.34;95929.41;5059267;28;20327;-63
2022/09/27 08:13:05;;;;;;;2.92;0.90;;;;;;;8.27;98.64;95939.38;5062599;28;20052;-63
2022/09/27 08:15:34;;;;;;;3.35;0.80;;;;;;;8.48;99.37;95936.63;5060099;28;20072;-62
2022/09/27 08:18:01;;;;;;;5.22;0.90;;;;;;;8.61;95.90;95937.13;5060868;28;20060;-62
2022/09/27 08:20:46;;;;;;;2.50;0.75;;;;;;;8.66;95.66;95940.63;5063440;28;20055;-62
2022/09/27 08:23:25;;;;;;;1.80;0.65;;;;;;;8.84;97.92;95947.31;5061684;28;20195;-62
2022/09/27 08:26:10;;;;;;;1.52;0.90;;;;;;;8.69;93.16;95948.19;5061337;28;20052;-65
2022/09/27 08:28:55;;;;;;;1.70;0.88;;;;;;;8.92;95.68;95945.94;5060934;28;20064;-65
2022/09/27 08:31:25;;;;;;;2.55;1.25;;;;;;;8.87;95.96;95945.97;5063450;28;20036;-66
2022/09/27 08:33:53;;;;;;;2.72;1.02;;;;;;;8.78;96.01;95956.53;5065610;28;20055;-65
2022/09/27 08:36:21;;;;;;;3.00;1.20;;;;;;;8.61;96.81;95956.84;5065324;28;20040;-66
2022/09/27 08:38:49;;;;;;;3.35;0.95;;;;;;;8.60;95.80;95955.25;5064079;28;20040;-64
2022/09/27 08:41:29;;;;;;;2.42;1.30;;;;;;;8.57;97.78;95953.06;5062727;28;20044;-65
2022/09/27 08:44:08;;;;;;;2.55;1.20;;;;;;;8.74;95.55;95962.75;5060184;28;20105;-64
2022/09/27 08:47:03;;;;;;;3.17;1.58;;;;;;;8.75;94.55;95957.09;5061002;28;20392;-65
2022/09/27 08:49:54;;;;;;;4.13;1.48;;;;;;;8.69;93.49;95961.69;5063785;28;20041;-66
2022/09/27 08:52:42;;;;;;;5.70;1.38;;;;;;;8.64;95.82;95961.69;5066173;28;20518;-65
2022/09/27 08:55:39;;;;;;;5.28;1.35;;;;;;;8.75;93.36;95964.34;5059816;28;20053;-63
2022/09/27 08:58:24;;;;;;;3.22;1.02;;;;;;;8.38;96.89;95953.63;5058635;28;20079;-62
2022/09/27 09:00:54;;;;;;;2.10;1.20;;;;;;;8.41;94.77;95963.88;5061287;28;20044;-63
2022/09/27 09:03:32;;;;;;;3.20;1.20;;;;;;;8.34;96.74;95960.66;5064421;28;20526;-63
2022/09/27 09:06:09;;;;;;;;;;;;;;;8.41;93.86;95955.78;5063838;28;19932;-62
2022/09/27 09:08:42;;;;;;;;;;;;;;;8.36;94.58;95955.78;5079357;28;20462;-62
2022/09/27 09:14:32;;;;;;;;;;;;;;;8.69;96.20;95950.06;5079208;28;19927;-62
2022/09/27 09:17:16;;;;;;;3.28;0.98;;;;;;;8.80;93.71;95953.53;5065942;28;19920;-67
2022/09/27 09:20:27;;;;;;;2.30;1.10;;;;;;;9.09;91.47;95958.28;5064205;28;20638;-62
2022/09/27 09:23:15;;;;;;;2.13;1.00;;;;;;;9.16;91.57;95969.59;5059855;28;20717;-63
2022/09/27 09:25:57;;;;;;;1.88;0.82;;;;;;;9.28;89.92;95947.66;5063731;28;20059;-63
2022/09/27 09:28:53;;;;;;;2.17;0.98;;;;;;;9.53;89.33;95959.41;5059582;28;20090;-67
2022/09/27 09:31:32;;;;;;;2.17;1.10;;;;;;;9.58;89.54;95951.25;5052376;28;20053;-62
2022/09/27 09:34:26;;;;;;;1.90;1.20;;;;;;;9.73;86.66;95949.56;5070834;28;20436;-61
2022/09/27 09:36:55;;;;;;;3.55;1.50;;;;;;;10.04;88.82;95948.47;5065387;28;20051;-62
2022/09/27 09:39:24;;;;;;;3.58;1.20;;;;;;;10.07;86.63;95943.34;5068917;28;20052;-67
2022/09/27 09:41:54;;;;;;;3.88;1.65;;;;;;;10.23;85.68;95957.53;5068492;28;20591;-65
2022/09/27 09:44:48;;;;;;;3.60;1.30;;;;;;;10.33;84.15;95939.56;5069351;28;20044;-66
2022/09/27 09:47:45;;;;;;;5.28;1.52;;;;;;;10.14;81.12;95927.56;5065285;28;20090;-67
2022/09/27 09:50:21;;;;;;;4.60;1.13;;;;;;;9.89;80.07;95942.91;5057210;28;20049;-66
2022/09/27 09:52:55;;;;;;;3.15;1.27;;;;;;;9.74;80.71;95933.03;5074682;28;20060;-62
2022/09/27 09:55:27;;;;;;;3.40;1.20;;;;;;;9.88;82.10;95930.50;5062327;28;20075;-66
2022/09/27 09:58:03;;;;;;;4.00;1.10;;;;;;;10.24;82.70;95925.84;5062734;28;20076;-64
2022/09/27 10:00:40;;;;;;;1.90;0.95;;;;;;;10.35;81.79;95913.84;5064507;28;20534;-67
2022/09/27 10:03:08;;;;;;;3.35;1.10;;;;;;;10.44;79.97;95914.06;5067708;28;20605;-66
2022/09/27 10:05:35;;;;;;;1.80;0.90;;;;;;;10.41;79.65;95922.72;5062404;28;20044;-65
2022/09/27 10:08:10;;;;;;;4.97;1.10;;;;;;;10.42;77.68;95921.63;5063188;28;20056;-65
2022/09/27 10:10:39;;;;;;;2.58;1.00;;;;;;;10.34;77.25;95919.53;5061078;28;20053;-65
2022/09/27 10:13:34;;;;;;;3.42;1.05;;;;;;;10.31;75.22;95923.63;5063567;28;20043;-65
2022/09/27 10:16:06;;;;;;;4.55;1.08;;;;;;;10.10;76.98;95936.56;5062500;28;20106;-66
2022/09/27 10:18:37;;;;;;;4.10;1.13;;;;;;;10.12;77.52;95937.88;5062251;28;20033;-65
2022/09/27 10:21:12;;;;;;;5.72;1.60;;;;;;;10.01;77.61;95933.63;5062172;28;20561;-66
2022/09/27 10:24:15;;;;;;;3.72;1.20;;;;;;;10.09;76.50;95921.41;5062295;28;20152;-65
2022/09/27 10:27:04;;;;;;;2.20;0.95;;;;;;;10.33;78.54;95924.16;5068019;28;20058;-65
2022/09/27 10:29:35;;;;;;;4.70;1.10;;;;;;;10.34;78.67;95914.94;5067772;28;20113;-66
2022/09/27 10:32:22;;;;;;;2.65;0.90;;;;;;;10.64;79.05;95921.16;5061198;28;20063;-66
2022/09/27 10:34:51;;;;;;;5.18;0.93;;;;;;;10.57;75.20;95909.06;5061441;28;20114;-66
2022/09/27 10:37:21;;;;;;;2.47;0.95;;;;;;;10.74;75.47;95914.81;5061153;28;20055;-66
2022/09/27 10:40:25;;;;;;;4.97;1.23;;;;;;;10.70;78.36;95911.06;5062455;28;20045;-66
2022/09/27 10:42:53;;;;;;;3.70;0.88;;;;;;;10.60;76.29;95909.28;5051742;28;20060;-66
2022/09/27 10:45:26;;;;;;;2.88;0.98;;;;;;;10.68;78.85;95905.13;5058746;28;20044;-66
2022/09/27 10:47:59;;;;;;;4.18;1.30;;;;;;;10.33;80.85;95907.94;5060473;28;20062;-66
2022/09/27 10:50:57;;;;;;;5.68;0.88;;;;;;;10.07;81.86;95904.66;5056674;28;20076;-66
2022/09/27 10:53:45;;;;;;;4.03;1.10;;;;;;;9.88;86.38;95913.50;5066256;28;20083;-66
2022/09/27 10:56:31;;;;;;;4.68;1.08;;;;;;;9.88;81.75;95902.66;5064340;28;20044;-65
2022/09/27 10:59:01;;;;;;;2.20;1.10;;;;;;;10.07;82.71;95897.38;5063496;28;20044;-66
2022/09/27 11:01:44;;;;;;;2.30;1.10;;;;;;;10.04;80.61;95900.63;5061913;28;20052;-66
2022/09/27 11:04:31;;;;;;;2.63;0.80;;;;;;;10.20;81.16;95892.34;5061933;28;20033;-66
2022/09/27 11:07:18;;;;;;;3.88;1.52;;;;;;;10.26;82.05;95885.81;5057286;28;20052;-66
2022/09/27 11:10:01;;;;;;;2.58;1.38;;;;;;;10.11;80.96;95881.38;5109998;27;20409;-66
2022/09/27 11:12:30;;;;;;;3.53;1.17;;;;;;;10.09;82.42;95875.41;5062722;28;20087;-66
2022/09/27 11:15:13;;;;;;;3.25;0.88;;;;;;;10.10;81.38;95879.75;5059339;28;20041;-66
2022/09/27 11:17:50;;;;;;;;;;;;;;;10.07;81.27;95874.91;5062952;28;20098;-66
2022/09/27 11:20:24;;;;;;;;;;;;;;;9.89;81.77;95885.34;5062072;28;19928;-66
2022/09/27 11:22:57;;;;;;;;;;;;;;;10.08;79.87;95887.34;5063865;28;20494;-66
2022/09/27 11:25:38;;;;;;;;;;;;;;;10.03;80.99;95888.22;5061825;28;19934;-66
2022/09/27 11:28:21;;;;;;;;;;;;;;;9.91;83.23;95891.28;5062316;28;20407;-66
2022/09/27 11:30:48;;;;;;;;;;;;;;;9.65;86.32;95894.19;5067175;28;20606;-66
2022/09/27 11:33:59;;;;;;;;;;;;;;;9.20;91.82;95929.34;5060820;28;19929;-66
2022/09/27 11:36:45;;;;;;;;;;;;;;;7.97;100.00;95961.75;5057169;28;19982;-66
2022/09/27 11:39:50;;;;;;;2.03;0.68;;;;;;;6.43;100.00;95980.69;5058262;28;20307;-66
2022/09/27 11:42:35;;;;;;;0.88;0.50;;;;;;;5.79;100.00;95972.41;5022321;28;20052;-65
2022/09/27 11:45:30;;;;;;;2.47;0.50;;;;;;;5.84;100.00;95964.41;5056787;28;20052;-65
2022/09/27 11:48:43;;;;;;;2.35;0.50;;;;;;;6.12;100.00;95957.13;5052236;28;20043;-62
2022/09/27 11:51:32;;;;;;;1.48;0.63;;;;;;;6.35;100.00;95957.81;5060349;28;20052;-61
2022/09/27 11:54:26;;;;;;;0.70;0.30;;;;;;;6.45;100.00;95947.09;5064450;28;20044;-60
2022/09/27 11:57:10;;;;;;;1.30;0.50;;;;;;;6.69;100.00;95935.09;5055433;28;20075;-60
2022/09/27 11:59:53;;;;;;;1.63;0.52;;;;;;;6.93;100.00;95935.47;5062015;28;20033;-62
2022/09/27 12:02:42;;;;;;;0.45;0.30;;;;;;;6.68;100.00;95930.81;5060846;28;20055;-60
2022/09/27 12:05:35;;;;;;;1.33;0.40;;;;;;;6.97;100.00;95939.25;5063845;28;20048;-71
2022/09/27 12:08:21;;;;;;;0.73;0.50;;;;;;;6.96;100.00;95939.53;5066455;28;20137;-62
2022/09/27 12:10:54;;;;;;;1.58;0.43;;;;;;;6.88;100.00;95927.38;5053509;28;20052;-61
2022/09/27 12:13:40;;;;;;;0.75;0.30;;;;;;;7.01;100.00;95934.16;5062279;28;20044;-61
2022/09/27 12:16:09;;;;;;;0.68;0.40;;;;;;;6.94;100.00;95930.91;5064820;28;20048;-68
2022/09/27 12:18:39;;;;;;;0.85;0.38;;;;;;;6.86;100.00;95924.94;5066813;28;20098;-68
2022/09/27 12:21:20;;;;;;;0.68;0.45;;;;;;;6.74;100.00;95921.66;5066557;28;20531;-61
2022/09/27 12:23:58;;;;;;;1.75;0.47;;;;;;;6.79;100.00;95919.03;5068296;28;20098;-68
2022/09/27 12:26:57;;;;;;;3.13;0.70;;;;;;;6.98;100.00;95922.06;5065771;28;20094;-61
2022/09/27 12:29:40;;;;;;;1.05;0.70;;;;;;;7.07;100.00;95918.84;5063781;28;20447;-60
2022/09/27 12:32:12;;;;;;;1.65;0.88;;;;;;;7.00;100.00;95925.28;5064406;28;20044;-60
2022/09/27 12:34:58;;;;;;;1.73;0.68;;;;;;;6.94;100.00;95904.81;5064584;28;20050;-59
2022/09/27 12:37:36;;;;;;;1.92;0.82;;;;;;;7.06;100.00;95911.81;5063854;28;20076;-62